sensor_id;sensor_type;location;lat;lon;timestamp;P1;durP1;ratioP1;P2;durP2;ratioP2
74042;SDS011;62384;53.600;10.040;2023-04-16T00:02:10;29.00;;;12.52;;
74042;SDS011;62384;53.600;10.040;2023-04-16T00:04:35;27.08;;;13.30;;
74042;SDS011;62384;53.600;10.040;2023-04-16T00:07:01;29.33;;;11.68;;
74042;SDS011;62384;53.600;10.040;2023-04-16T00:09:26;28.10;;;12.73;;
74042;SDS011;62384;53.600;10.040;2023-04-16T00:11:51;26.95;;;12.35;;
74042;SDS011;62384;53.600;10.040;2023-04-16T00:14:17;27.45;;;11.57;;
74042;SDS011;62384;53.600;10.040;2023-04-16T00:16:42;26.35;;;11.80;;
74042;SDS011;62384;53.600;10.040;2023-04-16T00:19:08;34.55;;;12.77;;
74042;SDS011;62384;53.600;10.040;2023-04-16T00:21:33;30.92;;;11.93;;
74042;SDS011;62384;53.600;10.040;2023-04-16T00:23:58;26.13;;;12.23;;
74042;SDS011;62384;53.600;10.040;2023-04-16T00:26:24;23.45;;;11.75;;
74042;SDS011;62384;53.600;10.040;2023-04-16T00:28:49;25.80;;;12.57;;
74042;SDS011;62384;53.600;10.040;2023-04-16T00:31:14;22.65;;;11.75;;
74042;SDS011;62384;53.600;10.040;2023-04-16T00:33:39;28.88;;;12.77;;
74042;SDS011;62384;53.600;10.040;2023-04-16T00:36:05;24.00;;;12.50;;
74042;SDS011;62384;53.600;10.040;2023-04-16T00:38:31;23.58;;;12.18;;
74042;SDS011;62384;53.600;10.040;2023-04-16T00:40:56;26.55;;;12.15;;
74042;SDS011;62384;53.600;10.040;2023-04-16T00:43:23;21.58;;;11.38;;
74042;SDS011;62384;53.600;10.040;2023-04-16T00:45:50;25.33;;;12.82;;
74042;SDS011;62384;53.600;10.040;2023-04-16T00:48:17;24.05;;;12.07;;
74042;SDS011;62384;53.600;10.040;2023-04-16T00:50:43;30.10;;;12.07;;
74042;SDS011;62384;53.600;10.040;2023-04-16T00:53:08;29.75;;;11.18;;
74042;SDS011;62384;53.600;10.040;2023-04-16T00:55:33;22.67;;;11.15;;
74042;SDS011;62384;53.600;10.040;2023-04-16T00:57:59;24.40;;;11.77;;
74042;SDS011;62384;53.600;10.040;2023-04-16T01:00:24;24.67;;;11.80;;
74042;SDS011;62384;53.600;10.040;2023-04-16T01:02:51;26.55;;;11.40;;
74042;SDS011;62384;53.600;10.040;2023-04-16T01:05:17;23.80;;;11.65;;
74042;SDS011;62384;53.600;10.040;2023-04-16T01:07:42;21.65;;;10.50;;
74042;SDS011;62384;53.600;10.040;2023-04-16T01:10:08;24.35;;;10.68;;
74042;SDS011;62384;53.600;10.040;2023-04-16T01:12:33;24.83;;;11.43;;
74042;SDS011;62384;53.600;10.040;2023-04-16T01:14:59;26.30;;;10.77;;
74042;SDS011;62384;53.600;10.040;2023-04-16T01:17:24;24.88;;;10.88;;
74042;SDS011;62384;53.600;10.040;2023-04-16T01:19:49;19.25;;;10.45;;
74042;SDS011;62384;53.600;10.040;2023-04-16T01:22:15;20.38;;;10.30;;
74042;SDS011;62384;53.600;10.040;2023-04-16T01:24:40;22.25;;;11.15;;
74042;SDS011;62384;53.600;10.040;2023-04-16T01:27:05;20.23;;;10.00;;
74042;SDS011;62384;53.600;10.040;2023-04-16T01:29:31;25.50;;;11.52;;
74042;SDS011;62384;53.600;10.040;2023-04-16T01:31:56;24.90;;;9.95;;
74042;SDS011;62384;53.600;10.040;2023-04-16T01:34:21;19.75;;;9.75;;
74042;SDS011;62384;53.600;10.040;2023-04-16T01:36:47;21.15;;;10.00;;
74042;SDS011;62384;53.600;10.040;2023-04-16T01:39:12;22.17;;;10.00;;
74042;SDS011;62384;53.600;10.040;2023-04-16T01:41:41;22.92;;;10.27;;
74042;SDS011;62384;53.600;10.040;2023-04-16T01:44:06;21.80;;;10.15;;
74042;SDS011;62384;53.600;10.040;2023-04-16T01:46:32;22.45;;;9.77;;
74042;SDS011;62384;53.600;10.040;2023-04-16T01:48:59;23.88;;;10.00;;
74042;SDS011;62384;53.600;10.040;2023-04-16T01:51:28;22.85;;;9.95;;
74042;SDS011;62384;53.600;10.040;2023-04-16T01:53:54;19.38;;;9.10;;
74042;SDS011;62384;53.600;10.040;2023-04-16T01:56:19;23.98;;;10.23;;
74042;SDS011;62384;53.600;10.040;2023-04-16T01:58:45;26.80;;;9.43;;
74042;SDS011;62384;53.600;10.040;2023-04-16T02:01:11;21.75;;;9.85;;
74042;SDS011;62384;53.600;10.040;2023-04-16T02:03:37;25.48;;;9.88;;
74042;SDS011;62384;53.600;10.040;2023-04-16T02:06:02;20.13;;;9.80;;
74042;SDS011;62384;53.600;10.040;2023-04-16T02:08:28;24.25;;;10.32;;
74042;SDS011;62384;53.600;10.040;2023-04-16T02:10:54;20.23;;;9.85;;
74042;SDS011;62384;53.600;10.040;2023-04-16T02:13:20;18.10;;;9.55;;
74042;SDS011;62384;53.600;10.040;2023-04-16T02:15:47;23.23;;;10.07;;
74042;SDS011;62384;53.600;10.040;2023-04-16T02:18:14;19.83;;;9.65;;
74042;SDS011;62384;53.600;10.040;2023-04-16T02:20:40;23.15;;;9.70;;
74042;SDS011;62384;53.600;10.040;2023-04-16T02:23:09;21.05;;;9.43;;
74042;SDS011;62384;53.600;10.040;2023-04-16T02:25:39;18.98;;;9.95;;
74042;SDS011;62384;53.600;10.040;2023-04-16T02:30:37;20.65;;;9.07;;
74042;SDS011;62384;53.600;10.040;2023-04-16T02:33:03;19.42;;;9.15;;
74042;SDS011;62384;53.600;10.040;2023-04-16T02:35:31;23.25;;;10.10;;
74042;SDS011;62384;53.600;10.040;2023-04-16T02:37:56;20.30;;;10.63;;
74042;SDS011;62384;53.600;10.040;2023-04-16T02:40:22;20.95;;;9.27;;
74042;SDS011;62384;53.600;10.040;2023-04-16T02:42:48;23.88;;;9.80;;
74042;SDS011;62384;53.600;10.040;2023-04-16T02:45:14;24.27;;;10.27;;
74042;SDS011;62384;53.600;10.040;2023-04-16T02:47:39;19.98;;;9.90;;
74042;SDS011;62384;53.600;10.040;2023-04-16T02:50:04;25.08;;;10.38;;
74042;SDS011;62384;53.600;10.040;2023-04-16T02:52:30;26.27;;;10.32;;
74042;SDS011;62384;53.600;10.040;2023-04-16T02:54:56;20.40;;;9.82;;
74042;SDS011;62384;53.600;10.040;2023-04-16T02:57:21;23.52;;;11.05;;
74042;SDS011;62384;53.600;10.040;2023-04-16T02:59:47;23.88;;;10.30;;
74042;SDS011;62384;53.600;10.040;2023-04-16T03:02:12;21.88;;;10.15;;
74042;SDS011;62384;53.600;10.040;2023-04-16T03:04:37;21.27;;;10.25;;
74042;SDS011;62384;53.600;10.040;2023-04-16T03:07:03;22.73;;;10.63;;
74042;SDS011;62384;53.600;10.040;2023-04-16T03:09:28;21.33;;;10.73;;
74042;SDS011;62384;53.600;10.040;2023-04-16T03:11:54;22.48;;;10.70;;
74042;SDS011;62384;53.600;10.040;2023-04-16T03:14:20;20.90;;;10.70;;
74042;SDS011;62384;53.600;10.040;2023-04-16T03:16:45;27.70;;;10.93;;
74042;SDS011;62384;53.600;10.040;2023-04-16T03:19:10;23.55;;;11.40;;
74042;SDS011;62384;53.600;10.040;2023-04-16T03:21:36;23.35;;;10.98;;
74042;SDS011;62384;53.600;10.040;2023-04-16T03:24:01;24.42;;;11.10;;
74042;SDS011;62384;53.600;10.040;2023-04-16T03:26:26;23.75;;;11.10;;
74042;SDS011;62384;53.600;10.040;2023-04-16T03:28:51;22.42;;;11.05;;
74042;SDS011;62384;53.600;10.040;2023-04-16T03:31:17;23.95;;;11.32;;
74042;SDS011;62384;53.600;10.040;2023-04-16T03:33:42;22.58;;;11.05;;
74042;SDS011;62384;53.600;10.040;2023-04-16T03:36:08;26.70;;;11.13;;
74042;SDS011;62384;53.600;10.040;2023-04-16T03:38:34;23.10;;;10.63;;
74042;SDS011;62384;53.600;10.040;2023-04-16T03:40:59;25.10;;;11.75;;
74042;SDS011;62384;53.600;10.040;2023-04-16T03:43:24;27.98;;;12.80;;
74042;SDS011;62384;53.600;10.040;2023-04-16T03:45:50;27.38;;;11.90;;
74042;SDS011;62384;53.600;10.040;2023-04-16T03:48:15;24.77;;;11.65;;
74042;SDS011;62384;53.600;10.040;2023-04-16T03:50:44;24.17;;;12.85;;
74042;SDS011;62384;53.600;10.040;2023-04-16T03:53:10;23.30;;;11.50;;
74042;SDS011;62384;53.600;10.040;2023-04-16T03:55:35;20.65;;;11.68;;
74042;SDS011;62384;53.600;10.040;2023-04-16T03:58:01;22.50;;;11.95;;
74042;SDS011;62384;53.600;10.040;2023-04-16T04:00:27;23.92;;;12.20;;
74042;SDS011;62384;53.600;10.040;2023-04-16T04:02:53;25.17;;;12.00;;
74042;SDS011;62384;53.600;10.040;2023-04-16T04:05:18;24.50;;;10.88;;
74042;SDS011;62384;53.600;10.040;2023-04-16T04:07:44;30.00;;;12.90;;
74042;SDS011;62384;53.600;10.040;2023-04-16T04:10:09;25.27;;;12.63;;
74042;SDS011;62384;53.600;10.040;2023-04-16T04:12:34;29.98;;;11.93;;
74042;SDS011;62384;53.600;10.040;2023-04-16T04:15:00;29.83;;;13.85;;
74042;SDS011;62384;53.600;10.040;2023-04-16T04:17:25;25.08;;;11.90;;
74042;SDS011;62384;53.600;10.040;2023-04-16T04:19:50;25.80;;;12.25;;
74042;SDS011;62384;53.600;10.040;2023-04-16T04:22:17;26.35;;;13.13;;
74042;SDS011;62384;53.600;10.040;2023-04-16T04:24:43;26.95;;;11.85;;
74042;SDS011;62384;53.600;10.040;2023-04-16T04:27:08;23.40;;;11.95;;
74042;SDS011;62384;53.600;10.040;2023-04-16T04:29:33;22.88;;;11.50;;
74042;SDS011;62384;53.600;10.040;2023-04-16T04:31:59;24.83;;;11.70;;
74042;SDS011;62384;53.600;10.040;2023-04-16T04:34:24;22.85;;;11.05;;
74042;SDS011;62384;53.600;10.040;2023-04-16T04:36:50;23.08;;;10.63;;
74042;SDS011;62384;53.600;10.040;2023-04-16T04:39:15;21.85;;;11.25;;
74042;SDS011;62384;53.600;10.040;2023-04-16T04:41:40;23.27;;;10.98;;
74042;SDS011;62384;53.600;10.040;2023-04-16T04:44:06;23.50;;;10.85;;
74042;SDS011;62384;53.600;10.040;2023-04-16T04:46:31;25.70;;;12.50;;
74042;SDS011;62384;53.600;10.040;2023-04-16T04:48:56;25.40;;;10.70;;
74042;SDS011;62384;53.600;10.040;2023-04-16T04:51:22;26.73;;;11.95;;
74042;SDS011;62384;53.600;10.040;2023-04-16T04:53:47;24.67;;;11.50;;
74042;SDS011;62384;53.600;10.040;2023-04-16T04:56:12;26.85;;;12.00;;
74042;SDS011;62384;53.600;10.040;2023-04-16T04:58:37;19.77;;;10.18;;
74042;SDS011;62384;53.600;10.040;2023-04-16T05:01:03;21.90;;;11.38;;
74042;SDS011;62384;53.600;10.040;2023-04-16T05:03:28;23.60;;;11.10;;
74042;SDS011;62384;53.600;10.040;2023-04-16T05:05:53;24.65;;;11.50;;
74042;SDS011;62384;53.600;10.040;2023-04-16T05:08:19;26.83;;;11.30;;
74042;SDS011;62384;53.600;10.040;2023-04-16T05:10:44;23.00;;;10.95;;
74042;SDS011;62384;53.600;10.040;2023-04-16T05:13:09;23.40;;;11.10;;
74042;SDS011;62384;53.600;10.040;2023-04-16T05:15:35;24.42;;;11.45;;
74042;SDS011;62384;53.600;10.040;2023-04-16T05:18:00;24.30;;;11.88;;
74042;SDS011;62384;53.600;10.040;2023-04-16T05:20:25;22.42;;;10.40;;
74042;SDS011;62384;53.600;10.040;2023-04-16T05:22:51;24.70;;;11.38;;
74042;SDS011;62384;53.600;10.040;2023-04-16T05:25:16;24.92;;;11.40;;
74042;SDS011;62384;53.600;10.040;2023-04-16T05:27:42;26.10;;;11.25;;
74042;SDS011;62384;53.600;10.040;2023-04-16T05:30:07;24.35;;;11.05;;
74042;SDS011;62384;53.600;10.040;2023-04-16T05:32:33;31.40;;;12.60;;
74042;SDS011;62384;53.600;10.040;2023-04-16T05:34:58;21.50;;;10.73;;
74042;SDS011;62384;53.600;10.040;2023-04-16T05:37:24;26.85;;;11.98;;
74042;SDS011;62384;53.600;10.040;2023-04-16T05:39:49;23.83;;;11.45;;
74042;SDS011;62384;53.600;10.040;2023-04-16T05:42:15;28.02;;;11.40;;
74042;SDS011;62384;53.600;10.040;2023-04-16T05:44:40;24.02;;;10.98;;
74042;SDS011;62384;53.600;10.040;2023-04-16T05:47:06;26.15;;;11.27;;
74042;SDS011;62384;53.600;10.040;2023-04-16T05:49:33;23.75;;;11.40;;
74042;SDS011;62384;53.600;10.040;2023-04-16T05:51:58;25.27;;;11.50;;
74042;SDS011;62384;53.600;10.040;2023-04-16T05:54:24;22.92;;;10.27;;
74042;SDS011;62384;53.600;10.040;2023-04-16T05:56:49;24.77;;;11.55;;
74042;SDS011;62384;53.600;10.040;2023-04-16T05:59:14;22.30;;;10.48;;
74042;SDS011;62384;53.600;10.040;2023-04-16T06:01:43;24.77;;;11.73;;
74042;SDS011;62384;53.600;10.040;2023-04-16T06:04:08;25.83;;;11.40;;
74042;SDS011;62384;53.600;10.040;2023-04-16T06:06:33;23.15;;;10.57;;
74042;SDS011;62384;53.600;10.040;2023-04-16T06:08:59;22.27;;;11.43;;
74042;SDS011;62384;53.600;10.040;2023-04-16T06:11:24;24.17;;;11.15;;
74042;SDS011;62384;53.600;10.040;2023-04-16T06:13:51;25.80;;;12.45;;
74042;SDS011;62384;53.600;10.040;2023-04-16T06:16:16;22.50;;;10.93;;
74042;SDS011;62384;53.600;10.040;2023-04-16T06:18:41;22.90;;;12.00;;
74042;SDS011;62384;53.600;10.040;2023-04-16T06:21:07;23.48;;;11.13;;
74042;SDS011;62384;53.600;10.040;2023-04-16T06:23:32;22.23;;;10.55;;
74042;SDS011;62384;53.600;10.040;2023-04-16T06:25:57;24.23;;;11.93;;
74042;SDS011;62384;53.600;10.040;2023-04-16T06:28:22;23.35;;;10.82;;
74042;SDS011;62384;53.600;10.040;2023-04-16T06:30:48;23.42;;;11.27;;
74042;SDS011;62384;53.600;10.040;2023-04-16T06:33:13;23.63;;;10.85;;
74042;SDS011;62384;53.600;10.040;2023-04-16T06:42:22;22.85;;;10.25;;
74042;SDS011;62384;53.600;10.040;2023-04-16T06:44:47;23.25;;;11.32;;
74042;SDS011;62384;53.600;10.040;2023-04-16T06:47:13;21.65;;;10.25;;
74042;SDS011;62384;53.600;10.040;2023-04-16T06:49:38;25.05;;;11.27;;
74042;SDS011;62384;53.600;10.040;2023-04-16T06:52:03;24.20;;;10.73;;
74042;SDS011;62384;53.600;10.040;2023-04-16T06:54:29;26.75;;;11.88;;
74042;SDS011;62384;53.600;10.040;2023-04-16T06:56:54;20.02;;;10.13;;
74042;SDS011;62384;53.600;10.040;2023-04-16T06:59:20;24.33;;;11.00;;
74042;SDS011;62384;53.600;10.040;2023-04-16T07:01:45;32.38;;;11.55;;
74042;SDS011;62384;53.600;10.040;2023-04-16T07:04:10;25.75;;;9.77;;
74042;SDS011;62384;53.600;10.040;2023-04-16T07:06:36;24.38;;;10.60;;
74042;SDS011;62384;53.600;10.040;2023-04-16T07:09:01;24.80;;;10.43;;
74042;SDS011;62384;53.600;10.040;2023-04-16T07:11:27;21.05;;;10.35;;
74042;SDS011;62384;53.600;10.040;2023-04-16T07:13:54;17.45;;;9.85;;
74042;SDS011;62384;53.600;10.040;2023-04-16T07:16:19;25.65;;;11.77;;
74042;SDS011;62384;53.600;10.040;2023-04-16T07:18:44;24.25;;;10.80;;
74042;SDS011;62384;53.600;10.040;2023-04-16T07:21:10;23.48;;;10.38;;
74042;SDS011;62384;53.600;10.040;2023-04-16T07:23:35;20.30;;;10.68;;
74042;SDS011;62384;53.600;10.040;2023-04-16T07:26:00;27.88;;;10.43;;
74042;SDS011;62384;53.600;10.040;2023-04-16T07:28:25;20.10;;;10.18;;
74042;SDS011;62384;53.600;10.040;2023-04-16T07:30:51;20.13;;;9.77;;
74042;SDS011;62384;53.600;10.040;2023-04-16T07:33:17;23.02;;;9.90;;
74042;SDS011;62384;53.600;10.040;2023-04-16T07:35:43;21.42;;;10.10;;
74042;SDS011;62384;53.600;10.040;2023-04-16T07:38:09;22.38;;;10.25;;
74042;SDS011;62384;53.600;10.040;2023-04-16T07:40:35;23.42;;;11.32;;
74042;SDS011;62384;53.600;10.040;2023-04-16T07:43:01;22.60;;;10.02;;
74042;SDS011;62384;53.600;10.040;2023-04-16T07:45:26;20.98;;;10.85;;
74042;SDS011;62384;53.600;10.040;2023-04-16T07:47:54;21.83;;;9.57;;
74042;SDS011;62384;53.600;10.040;2023-04-16T07:50:25;20.95;;;10.00;;
74042;SDS011;62384;53.600;10.040;2023-04-16T07:52:50;21.63;;;10.25;;
74042;SDS011;62384;53.600;10.040;2023-04-16T07:55:16;25.90;;;10.18;;
74042;SDS011;62384;53.600;10.040;2023-04-16T07:57:41;21.30;;;10.30;;
74042;SDS011;62384;53.600;10.040;2023-04-16T08:00:07;21.80;;;9.77;;
74042;SDS011;62384;53.600;10.040;2023-04-16T08:02:33;20.80;;;10.88;;
74042;SDS011;62384;53.600;10.040;2023-04-16T08:04:58;20.63;;;9.80;;
74042;SDS011;62384;53.600;10.040;2023-04-16T08:07:24;18.70;;;9.32;;
74042;SDS011;62384;53.600;10.040;2023-04-16T08:09:52;17.85;;;8.93;;
74042;SDS011;62384;53.600;10.040;2023-04-16T08:12:18;19.55;;;10.20;;
74042;SDS011;62384;53.600;10.040;2023-04-16T08:14:44;20.65;;;10.00;;
74042;SDS011;62384;53.600;10.040;2023-04-16T08:17:13;18.58;;;9.38;;
74042;SDS011;62384;53.600;10.040;2023-04-16T08:19:38;23.45;;;10.05;;
74042;SDS011;62384;53.600;10.040;2023-04-16T08:22:05;21.65;;;9.73;;
74042;SDS011;62384;53.600;10.040;2023-04-16T08:24:30;21.17;;;10.10;;
74042;SDS011;62384;53.600;10.040;2023-04-16T08:26:56;20.67;;;9.13;;
74042;SDS011;62384;53.600;10.040;2023-04-16T08:29:21;20.02;;;9.60;;
74042;SDS011;62384;53.600;10.040;2023-04-16T08:31:49;19.75;;;9.05;;
74042;SDS011;62384;53.600;10.040;2023-04-16T08:34:14;16.05;;;8.27;;
74042;SDS011;62384;53.600;10.040;2023-04-16T08:36:39;18.65;;;8.80;;
74042;SDS011;62384;53.600;10.040;2023-04-16T08:39:06;18.10;;;9.25;;
74042;SDS011;62384;53.600;10.040;2023-04-16T08:41:32;22.23;;;11.68;;
74042;SDS011;62384;53.600;10.040;2023-04-16T08:43:59;21.33;;;10.40;;
74042;SDS011;62384;53.600;10.040;2023-04-16T08:46:26;15.35;;;8.38;;
74042;SDS011;62384;53.600;10.040;2023-04-16T08:48:54;18.25;;;8.88;;
74042;SDS011;62384;53.600;10.040;2023-04-16T08:51:20;22.50;;;9.23;;
74042;SDS011;62384;53.600;10.040;2023-04-16T08:56:22;20.27;;;9.25;;
74042;SDS011;62384;53.600;10.040;2023-04-16T08:58:47;17.42;;;9.65;;
74042;SDS011;62384;53.600;10.040;2023-04-16T09:01:15;18.73;;;8.35;;
74042;SDS011;62384;53.600;10.040;2023-04-16T09:03:41;16.90;;;8.93;;
74042;SDS011;62384;53.600;10.040;2023-04-16T09:06:10;16.70;;;8.98;;
74042;SDS011;62384;53.600;10.040;2023-04-16T09:08:35;15.82;;;9.23;;
74042;SDS011;62384;53.600;10.040;2023-04-16T09:11:02;17.33;;;8.98;;
74042;SDS011;62384;53.600;10.040;2023-04-16T09:13:29;16.15;;;8.48;;
74042;SDS011;62384;53.600;10.040;2023-04-16T09:15:55;17.38;;;8.60;;
74042;SDS011;62384;53.600;10.040;2023-04-16T09:18:21;16.95;;;8.93;;
74042;SDS011;62384;53.600;10.040;2023-04-16T09:20:51;16.92;;;9.05;;
74042;SDS011;62384;53.600;10.040;2023-04-16T09:23:16;17.17;;;8.65;;
74042;SDS011;62384;53.600;10.040;2023-04-16T09:25:42;17.00;;;8.90;;
74042;SDS011;62384;53.600;10.040;2023-04-16T09:28:08;19.92;;;9.30;;
74042;SDS011;62384;53.600;10.040;2023-04-16T09:30:35;18.23;;;9.40;;
74042;SDS011;62384;53.600;10.040;2023-04-16T09:33:17;18.08;;;9.40;;
74042;SDS011;62384;53.600;10.040;2023-04-16T09:35:53;18.55;;;9.07;;
74042;SDS011;62384;53.600;10.040;2023-04-16T09:38:18;15.65;;;9.35;;
74042;SDS011;62384;53.600;10.040;2023-04-16T09:40:45;15.50;;;8.80;;
74042;SDS011;62384;53.600;10.040;2023-04-16T09:43:12;16.35;;;8.55;;
74042;SDS011;62384;53.600;10.040;2023-04-16T09:48:26;18.10;;;8.57;;
74042;SDS011;62384;53.600;10.040;2023-04-16T09:50:56;21.02;;;9.35;;
74042;SDS011;62384;53.600;10.040;2023-04-16T09:53:26;17.10;;;8.95;;
74042;SDS011;62384;53.600;10.040;2023-04-16T09:56:01;18.42;;;9.25;;
74042;SDS011;62384;53.600;10.040;2023-04-16T09:58:28;17.63;;;8.75;;
74042;SDS011;62384;53.600;10.040;2023-04-16T10:01:01;15.43;;;8.70;;
74042;SDS011;62384;53.600;10.040;2023-04-16T10:03:31;20.13;;;8.40;;
74042;SDS011;62384;53.600;10.040;2023-04-16T10:05:58;14.50;;;8.95;;
74042;SDS011;62384;53.600;10.040;2023-04-16T10:08:41;17.08;;;8.52;;
74042;SDS011;62384;53.600;10.040;2023-04-16T10:11:07;17.83;;;8.75;;
74042;SDS011;62384;53.600;10.040;2023-04-16T10:13:32;15.43;;;8.00;;
74042;SDS011;62384;53.600;10.040;2023-04-16T10:15:58;18.33;;;8.45;;
74042;SDS011;62384;53.600;10.040;2023-04-16T10:18:24;17.52;;;8.23;;
74042;SDS011;62384;53.600;10.040;2023-04-16T10:20:49;15.35;;;8.43;;
74042;SDS011;62384;53.600;10.040;2023-04-16T10:23:15;16.85;;;8.50;;
74042;SDS011;62384;53.600;10.040;2023-04-16T10:25:41;16.73;;;7.80;;
74042;SDS011;62384;53.600;10.040;2023-04-16T10:28:07;21.50;;;9.40;;
74042;SDS011;62384;53.600;10.040;2023-04-16T10:30:34;18.00;;;8.77;;
74042;SDS011;62384;53.600;10.040;2023-04-16T10:33:00;15.77;;;8.73;;
74042;SDS011;62384;53.600;10.040;2023-04-16T10:35:28;18.85;;;8.85;;
74042;SDS011;62384;53.600;10.040;2023-04-16T10:37:58;14.88;;;8.10;;
74042;SDS011;62384;53.600;10.040;2023-04-16T10:40:57;16.10;;;8.57;;
74042;SDS011;62384;53.600;10.040;2023-04-16T10:43:29;19.98;;;8.85;;
74042;SDS011;62384;53.600;10.040;2023-04-16T10:45:55;15.52;;;8.55;;
74042;SDS011;62384;53.600;10.040;2023-04-16T10:48:22;15.60;;;8.30;;
74042;SDS011;62384;53.600;10.040;2023-04-16T10:50:55;15.98;;;8.32;;
74042;SDS011;62384;53.600;10.040;2023-04-16T10:53:22;19.33;;;7.93;;
74042;SDS011;62384;53.600;10.040;2023-04-16T10:58:28;18.15;;;8.23;;
74042;SDS011;62384;53.600;10.040;2023-04-16T11:00:54;14.57;;;8.90;;
74042;SDS011;62384;53.600;10.040;2023-04-16T11:03:23;14.98;;;7.85;;
74042;SDS011;62384;53.600;10.040;2023-04-16T11:05:49;16.20;;;7.78;;
74042;SDS011;62384;53.600;10.040;2023-04-16T11:08:14;12.93;;;7.90;;
74042;SDS011;62384;53.600;10.040;2023-04-16T11:10:40;14.48;;;8.38;;
74042;SDS011;62384;53.600;10.040;2023-04-16T11:13:12;16.83;;;8.75;;
74042;SDS011;62384;53.600;10.040;2023-04-16T11:15:38;16.90;;;8.43;;
74042;SDS011;62384;53.600;10.040;2023-04-16T11:18:03;16.85;;;9.15;;
74042;SDS011;62384;53.600;10.040;2023-04-16T11:20:30;15.52;;;8.63;;
74042;SDS011;62384;53.600;10.040;2023-04-16T11:22:56;15.77;;;8.30;;
74042;SDS011;62384;53.600;10.040;2023-04-16T11:25:22;16.08;;;8.75;;
74042;SDS011;62384;53.600;10.040;2023-04-16T11:27:53;17.40;;;8.70;;
74042;SDS011;62384;53.600;10.040;2023-04-16T11:33:01;16.38;;;8.80;;
74042;SDS011;62384;53.600;10.040;2023-04-16T11:35:27;16.30;;;9.05;;
74042;SDS011;62384;53.600;10.040;2023-04-16T11:37:56;14.75;;;8.00;;
74042;SDS011;62384;53.600;10.040;2023-04-16T11:40:22;17.35;;;9.10;;
74042;SDS011;62384;53.600;10.040;2023-04-16T11:42:48;17.85;;;9.27;;
74042;SDS011;62384;53.600;10.040;2023-04-16T11:45:13;18.63;;;8.73;;
74042;SDS011;62384;53.600;10.040;2023-04-16T11:47:42;13.88;;;8.27;;
74042;SDS011;62384;53.600;10.040;2023-04-16T11:50:21;15.35;;;8.35;;
74042;SDS011;62384;53.600;10.040;2023-04-16T11:52:48;16.85;;;8.43;;
74042;SDS011;62384;53.600;10.040;2023-04-16T11:55:15;15.80;;;8.23;;
74042;SDS011;62384;53.600;10.040;2023-04-16T11:57:41;15.38;;;7.85;;
74042;SDS011;62384;53.600;10.040;2023-04-16T12:00:06;14.50;;;8.05;;
74042;SDS011;62384;53.600;10.040;2023-04-16T12:07:58;13.88;;;8.60;;
74042;SDS011;62384;53.600;10.040;2023-04-16T12:10:25;17.35;;;8.20;;
74042;SDS011;62384;53.600;10.040;2023-04-16T12:12:51;16.10;;;8.20;;
74042;SDS011;62384;53.600;10.040;2023-04-16T12:15:16;14.50;;;8.40;;
74042;SDS011;62384;53.600;10.040;2023-04-16T12:17:42;17.05;;;8.32;;
74042;SDS011;62384;53.600;10.040;2023-04-16T12:20:08;17.40;;;9.10;;
74042;SDS011;62384;53.600;10.040;2023-04-16T12:22:38;18.23;;;9.25;;
74042;SDS011;62384;53.600;10.040;2023-04-16T12:25:06;19.45;;;9.68;;
74042;SDS011;62384;53.600;10.040;2023-04-16T12:30:22;16.75;;;9.27;;
74042;SDS011;62384;53.600;10.040;2023-04-16T12:33:12;15.30;;;8.35;;
74042;SDS011;62384;53.600;10.040;2023-04-16T12:35:42;15.63;;;8.55;;
74042;SDS011;62384;53.600;10.040;2023-04-16T12:38:09;17.67;;;8.32;;
74042;SDS011;62384;53.600;10.040;2023-04-16T12:40:38;16.13;;;8.70;;
74042;SDS011;62384;53.600;10.040;2023-04-16T12:43:03;14.52;;;8.27;;
74042;SDS011;62384;53.600;10.040;2023-04-16T12:45:28;15.48;;;8.52;;
74042;SDS011;62384;53.600;10.040;2023-04-16T12:47:54;16.13;;;7.70;;
74042;SDS011;62384;53.600;10.040;2023-04-16T12:50:20;16.30;;;7.18;;
74042;SDS011;62384;53.600;10.040;2023-04-16T12:52:45;15.00;;;7.72;;
74042;SDS011;62384;53.600;10.040;2023-04-16T12:55:10;16.17;;;8.70;;
74042;SDS011;62384;53.600;10.040;2023-04-16T12:57:36;17.45;;;8.80;;
74042;SDS011;62384;53.600;10.040;2023-04-16T13:00:01;17.42;;;8.93;;
74042;SDS011;62384;53.600;10.040;2023-04-16T13:02:30;17.60;;;8.85;;
74042;SDS011;62384;53.600;10.040;2023-04-16T13:04:56;19.25;;;8.50;;
74042;SDS011;62384;53.600;10.040;2023-04-16T13:07:21;18.17;;;9.52;;
74042;SDS011;62384;53.600;10.040;2023-04-16T13:09:48;15.85;;;8.85;;
74042;SDS011;62384;53.600;10.040;2023-04-16T13:12:13;19.08;;;9.23;;
74042;SDS011;62384;53.600;10.040;2023-04-16T13:14:38;18.50;;;8.77;;
74042;SDS011;62384;53.600;10.040;2023-04-16T13:17:04;18.95;;;10.00;;
74042;SDS011;62384;53.600;10.040;2023-04-16T13:19:29;16.38;;;9.05;;
74042;SDS011;62384;53.600;10.040;2023-04-16T13:21:55;18.92;;;9.05;;
74042;SDS011;62384;53.600;10.040;2023-04-16T13:24:21;19.63;;;10.02;;
74042;SDS011;62384;53.600;10.040;2023-04-16T13:26:48;20.30;;;9.63;;
74042;SDS011;62384;53.600;10.040;2023-04-16T13:29:14;19.70;;;10.20;;
74042;SDS011;62384;53.600;10.040;2023-04-16T13:31:39;19.00;;;9.40;;
74042;SDS011;62384;53.600;10.040;2023-04-16T13:34:04;20.95;;;8.63;;
74042;SDS011;62384;53.600;10.040;2023-04-16T13:36:30;18.45;;;9.55;;
74042;SDS011;62384;53.600;10.040;2023-04-16T13:38:57;19.13;;;9.80;;
74042;SDS011;62384;53.600;10.040;2023-04-16T13:41:22;20.00;;;9.55;;
74042;SDS011;62384;53.600;10.040;2023-04-16T13:43:48;20.17;;;9.88;;
74042;SDS011;62384;53.600;10.040;2023-04-16T13:46:14;21.02;;;9.43;;
74042;SDS011;62384;53.600;10.040;2023-04-16T13:48:39;21.42;;;9.38;;
74042;SDS011;62384;53.600;10.040;2023-04-16T13:51:05;14.77;;;8.80;;
74042;SDS011;62384;53.600;10.040;2023-04-16T13:53:30;16.77;;;8.88;;
74042;SDS011;62384;53.600;10.040;2023-04-16T13:55:55;23.02;;;10.15;;
74042;SDS011;62384;53.600;10.040;2023-04-16T13:58:21;19.85;;;10.23;;
74042;SDS011;62384;53.600;10.040;2023-04-16T14:00:46;20.25;;;9.65;;
74042;SDS011;62384;53.600;10.040;2023-04-16T14:03:11;18.40;;;8.73;;
74042;SDS011;62384;53.600;10.040;2023-04-16T14:05:37;18.15;;;9.02;;
74042;SDS011;62384;53.600;10.040;2023-04-16T14:08:02;18.15;;;8.95;;
74042;SDS011;62384;53.600;10.040;2023-04-16T14:10:29;20.80;;;9.75;;
74042;SDS011;62384;53.600;10.040;2023-04-16T14:12:55;15.55;;;8.63;;
74042;SDS011;62384;53.600;10.040;2023-04-16T14:15:21;16.63;;;9.13;;
74042;SDS011;62384;53.600;10.040;2023-04-16T14:17:46;16.98;;;8.38;;
74042;SDS011;62384;53.600;10.040;2023-04-16T14:20:12;16.38;;;8.88;;
74042;SDS011;62384;53.600;10.040;2023-04-16T14:22:38;18.05;;;8.98;;
74042;SDS011;62384;53.600;10.040;2023-04-16T14:25:04;18.35;;;9.30;;
74042;SDS011;62384;53.600;10.040;2023-04-16T14:27:30;20.30;;;9.18;;
74042;SDS011;62384;53.600;10.040;2023-04-16T14:29:57;14.63;;;8.70;;
74042;SDS011;62384;53.600;10.040;2023-04-16T14:32:38;19.20;;;8.93;;
74042;SDS011;62384;53.600;10.040;2023-04-16T14:35:03;16.25;;;8.85;;
74042;SDS011;62384;53.600;10.040;2023-04-16T14:37:29;16.73;;;8.85;;
74042;SDS011;62384;53.600;10.040;2023-04-16T14:39:54;19.02;;;8.93;;